sensor_id;sensor_type;location;lat;lon;timestamp;P1;durP1;ratioP1;P2;durP2;ratioP2
75311;SDS011;63906;55.686;37.532;2023-06-04T00:01:04;1.67;;;0.90;;
75311;SDS011;63906;55.686;37.532;2023-06-04T00:06:05;4.60;;;1.25;;
75311;SDS011;63906;55.686;37.532;2023-06-04T00:11:05;1.50;;;1.00;;
75311;SDS011;63906;55.686;37.532;2023-06-04T00:16:06;5.17;;;1.47;;
75311;SDS011;63906;55.686;37.532;2023-06-04T00:21:06;3.45;;;1.77;;
75311;SDS011;63906;55.686;37.532;2023-06-04T00:26:07;1.98;;;1.02;;
75311;SDS011;63906;55.686;37.532;2023-06-04T00:31:07;3.15;;;1.90;;
75311;SDS011;63906;55.686;37.532;2023-06-04T00:36:08;4.10;;;1.60;;
75311;SDS011;63906;55.686;37.532;2023-06-04T00:41:09;2.35;;;1.48;;
75311;SDS011;63906;55.686;37.532;2023-06-04T00:46:09;1.98;;;1.20;;
75311;SDS011;63906;55.686;37.532;2023-06-04T00:51:18;1.60;;;1.05;;
75311;SDS011;63906;55.686;37.532;2023-06-04T00:56:20;2.58;;;1.48;;
75311;SDS011;63906;55.686;37.532;2023-06-04T01:06:31;1.85;;;0.73;;
75311;SDS011;63906;55.686;37.532;2023-06-04T01:11:43;3.00;;;1.20;;
75311;SDS011;63906;55.686;37.532;2023-06-04T01:21:49;4.15;;;1.85;;
75311;SDS011;63906;55.686;37.532;2023-06-04T01:26:51;0.98;;;0.75;;
75311;SDS011;63906;55.686;37.532;2023-06-04T01:31:55;2.28;;;1.40;;
75311;SDS011;63906;55.686;37.532;2023-06-04T01:36:57;2.30;;;1.17;;
75311;SDS011;63906;55.686;37.532;2023-06-04T01:41:57;1.73;;;1.05;;
75311;SDS011;63906;55.686;37.532;2023-06-04T01:46:58;2.00;;;1.02;;
75311;SDS011;63906;55.686;37.532;2023-06-04T01:51:58;1.10;;;0.70;;
75311;SDS011;63906;55.686;37.532;2023-06-04T01:56:59;2.60;;;1.50;;
75311;SDS011;63906;55.686;37.532;2023-06-04T02:01:59;2.42;;;1.52;;
75311;SDS011;63906;55.686;37.532;2023-06-04T02:07:02;1.85;;;1.17;;
75311;SDS011;63906;55.686;37.532;2023-06-04T02:12:03;2.20;;;1.10;;
75311;SDS011;63906;55.686;37.532;2023-06-04T02:17:04;1.35;;;0.55;;
75311;SDS011;63906;55.686;37.532;2023-06-04T02:22:13;1.13;;;0.90;;
75311;SDS011;63906;55.686;37.532;2023-06-04T02:27:14;1.02;;;0.80;;
75311;SDS011;63906;55.686;37.532;2023-06-04T02:32:15;2.97;;;1.00;;
75311;SDS011;63906;55.686;37.532;2023-06-04T02:37:16;1.45;;;0.90;;
75311;SDS011;63906;55.686;37.532;2023-06-04T02:42:16;1.33;;;0.80;;
75311;SDS011;63906;55.686;37.532;2023-06-04T02:47:17;1.58;;;1.00;;
75311;SDS011;63906;55.686;37.532;2023-06-04T02:52:19;1.02;;;0.73;;
75311;SDS011;63906;55.686;37.532;2023-06-04T02:57:21;4.68;;;1.33;;
75311;SDS011;63906;55.686;37.532;2023-06-04T03:02:22;1.95;;;0.85;;
75311;SDS011;63906;55.686;37.532;2023-06-04T03:07:22;1.63;;;0.98;;
75311;SDS011;63906;55.686;37.532;2023-06-04T03:12:23;0.68;;;0.52;;
75311;SDS011;63906;55.686;37.532;2023-06-04T03:17:24;1.88;;;1.20;;
75311;SDS011;63906;55.686;37.532;2023-06-04T03:22:25;2.30;;;1.05;;
75311;SDS011;63906;55.686;37.532;2023-06-04T03:27:26;2.08;;;1.40;;
75311;SDS011;63906;55.686;37.532;2023-06-04T03:32:27;3.58;;;1.70;;
75311;SDS011;63906;55.686;37.532;2023-06-04T03:37:28;0.90;;;0.80;;
75311;SDS011;63906;55.686;37.532;2023-06-04T03:42:28;2.22;;;1.38;;
75311;SDS011;63906;55.686;37.532;2023-06-04T03:47:29;1.20;;;0.97;;
75311;SDS011;63906;55.686;37.532;2023-06-04T03:52:30;3.35;;;1.60;;
75311;SDS011;63906;55.686;37.532;2023-06-04T03:57:31;2.25;;;1.52;;
75311;SDS011;63906;55.686;37.532;2023-06-04T04:02:32;1.90;;;1.65;;
75311;SDS011;63906;55.686;37.532;2023-06-04T04:07:33;2.53;;;1.70;;
75311;SDS011;63906;55.686;37.532;2023-06-04T04:12:33;3.53;;;1.60;;
75311;SDS011;63906;55.686;37.532;2023-06-04T04:17:34;1.45;;;1.02;;
75311;SDS011;63906;55.686;37.532;2023-06-04T04:22:35;1.60;;;1.00;;
75311;SDS011;63906;55.686;37.532;2023-06-04T04:27:36;1.08;;;0.68;;
75311;SDS011;63906;55.686;37.532;2023-06-04T04:32:41;2.05;;;1.00;;
75311;SDS011;63906;55.686;37.532;2023-06-04T04:37:48;3.05;;;1.58;;
75311;SDS011;63906;55.686;37.532;2023-06-04T04:42:49;3.60;;;1.75;;
75311;SDS011;63906;55.686;37.532;2023-06-04T04:47:50;2.63;;;1.30;;
75311;SDS011;63906;55.686;37.532;2023-06-04T04:52:53;3.42;;;1.38;;
75311;SDS011;63906;55.686;37.532;2023-06-04T04:57:53;2.15;;;1.48;;
75311;SDS011;63906;55.686;37.532;2023-06-04T05:02:54;2.05;;;1.00;;
75311;SDS011;63906;55.686;37.532;2023-06-04T05:07:55;1.35;;;0.75;;
75311;SDS011;63906;55.686;37.532;2023-06-04T05:12:56;4.47;;;1.20;;
75311;SDS011;63906;55.686;37.532;2023-06-04T05:17:58;1.65;;;0.80;;
75311;SDS011;63906;55.686;37.532;2023-06-04T05:28:02;1.40;;;0.90;;
75311;SDS011;63906;55.686;37.532;2023-06-04T05:33:04;1.85;;;0.80;;
75311;SDS011;63906;55.686;37.532;2023-06-04T05:38:05;0.85;;;0.65;;
75311;SDS011;63906;55.686;37.532;2023-06-04T05:43:06;3.17;;;0.68;;
75311;SDS011;63906;55.686;37.532;2023-06-04T05:48:07;1.63;;;0.88;;
75311;SDS011;63906;55.686;37.532;2023-06-04T05:53:08;1.58;;;0.90;;
75311;SDS011;63906;55.686;37.532;2023-06-04T05:58:08;0.73;;;0.45;;
75311;SDS011;63906;55.686;37.532;2023-06-04T06:03:09;1.08;;;0.70;;
75311;SDS011;63906;55.686;37.532;2023-06-04T06:08:10;1.40;;;0.77;;
75311;SDS011;63906;55.686;37.532;2023-06-04T06:13:10;1.33;;;0.60;;
75311;SDS011;63906;55.686;37.532;2023-06-04T06:18:11;1.73;;;0.70;;
75311;SDS011;63906;55.686;37.532;2023-06-04T06:23:11;1.33;;;0.60;;
75311;SDS011;63906;55.686;37.532;2023-06-04T06:28:12;2.05;;;0.30;;
75311;SDS011;63906;55.686;37.532;2023-06-04T06:33:13;0.97;;;0.50;;
75311;SDS011;63906;55.686;37.532;2023-06-04T06:38:13;1.58;;;0.30;;
75311;SDS011;63906;55.686;37.532;2023-06-04T06:43:14;0.50;;;0.40;;
75311;SDS011;63906;55.686;37.532;2023-06-04T06:48:15;1.75;;;0.57;;
75311;SDS011;63906;55.686;37.532;2023-06-04T06:53:15;2.42;;;0.68;;
75311;SDS011;63906;55.686;37.532;2023-06-04T06:58:16;0.30;;;0.20;;
75311;SDS011;63906;55.686;37.532;2023-06-04T07:03:16;0.40;;;0.35;;
75311;SDS011;63906;55.686;37.532;2023-06-04T07:08:17;1.77;;;0.60;;
75311;SDS011;63906;55.686;37.532;2023-06-04T07:13:18;0.40;;;0.20;;
75311;SDS011;63906;55.686;37.532;2023-06-04T07:18:18;1.10;;;0.60;;
75311;SDS011;63906;55.686;37.532;2023-06-04T07:23:19;1.98;;;0.60;;
75311;SDS011;63906;55.686;37.532;2023-06-04T07:28:19;1.23;;;0.60;;
75311;SDS011;63906;55.686;37.532;2023-06-04T07:33:20;3.30;;;0.40;;
75311;SDS011;63906;55.686;37.532;2023-06-04T07:38:21;0.55;;;0.32;;
75311;SDS011;63906;55.686;37.532;2023-06-04T07:43:21;2.83;;;0.80;;
75311;SDS011;63906;55.686;37.532;2023-06-04T07:48:22;1.50;;;0.60;;
75311;SDS011;63906;55.686;37.532;2023-06-04T07:53:30;1.40;;;0.60;;
75311;SDS011;63906;55.686;37.532;2023-06-04T07:58:31;0.70;;;0.50;;
75311;SDS011;63906;55.686;37.532;2023-06-04T08:03:32;0.82;;;0.55;;
75311;SDS011;63906;55.686;37.532;2023-06-04T08:08:32;0.70;;;0.57;;
75311;SDS011;63906;55.686;37.532;2023-06-04T08:13:33;0.80;;;0.43;;
75311;SDS011;63906;55.686;37.532;2023-06-04T08:18:37;3.50;;;0.70;;
75311;SDS011;63906;55.686;37.532;2023-06-04T08:23:38;0.75;;;0.50;;
75311;SDS011;63906;55.686;37.532;2023-06-04T08:28:39;1.65;;;0.75;;
75311;SDS011;63906;55.686;37.532;2023-06-04T08:33:40;1.50;;;0.52;;
75311;SDS011;63906;55.686;37.532;2023-06-04T08:38:41;2.72;;;0.80;;
75311;SDS011;63906;55.686;37.532;2023-06-04T08:43:41;0.82;;;0.50;;
75311;SDS011;63906;55.686;37.532;2023-06-04T08:48:44;1.83;;;0.70;;
75311;SDS011;63906;55.686;37.532;2023-06-04T08:53:45;5.47;;;1.00;;
75311;SDS011;63906;55.686;37.532;2023-06-04T08:58:51;1.00;;;0.80;;
75311;SDS011;63906;55.686;37.532;2023-06-04T09:03:52;0.90;;;0.55;;
75311;SDS011;63906;55.686;37.532;2023-06-04T09:08:56;2.28;;;0.93;;
75311;SDS011;63906;55.686;37.532;2023-06-04T09:13:59;1.60;;;0.70;;
75311;SDS011;63906;55.686;37.532;2023-06-04T09:19:03;1.05;;;0.80;;
75311;SDS011;63906;55.686;37.532;2023-06-04T09:24:04;1.00;;;0.73;;
75311;SDS011;63906;55.686;37.532;2023-06-04T09:29:05;1.60;;;0.80;;
75311;SDS011;63906;55.686;37.532;2023-06-04T09:34:06;0.75;;;0.38;;
75311;SDS011;63906;55.686;37.532;2023-06-04T09:39:16;2.10;;;0.70;;
75311;SDS011;63906;55.686;37.532;2023-06-04T09:44:17;0.90;;;0.63;;
75311;SDS011;63906;55.686;37.532;2023-06-04T09:49:18;1.10;;;0.50;;
75311;SDS011;63906;55.686;37.532;2023-06-04T09:54:19;1.98;;;0.80;;
75311;SDS011;63906;55.686;37.532;2023-06-04T09:59:20;1.05;;;0.75;;
75311;SDS011;63906;55.686;37.532;2023-06-04T10:04:21;1.30;;;0.80;;
75311;SDS011;63906;55.686;37.532;2023-06-04T10:09:21;1.00;;;0.70;;
75311;SDS011;63906;55.686;37.532;2023-06-04T10:14:33;1.17;;;0.55;;
75311;SDS011;63906;55.686;37.532;2023-06-04T10:19:39;1.13;;;0.73;;
75311;SDS011;63906;55.686;37.532;2023-06-04T10:24:44;2.10;;;0.77;;
75311;SDS011;63906;55.686;37.532;2023-06-04T10:29:44;1.33;;;0.70;;
75311;SDS011;63906;55.686;37.532;2023-06-04T10:34:46;1.20;;;0.90;;
75311;SDS011;63906;55.686;37.532;2023-06-04T10:39:54;3.58;;;1.00;;
75311;SDS011;63906;55.686;37.532;2023-06-04T10:55:07;1.02;;;0.57;;
75311;SDS011;63906;55.686;37.532;2023-06-04T11:00:11;1.77;;;1.00;;
75311;SDS011;63906;55.686;37.532;2023-06-04T11:05:12;4.65;;;1.00;;
75311;SDS011;63906;55.686;37.532;2023-06-04T11:10:14;1.08;;;0.50;;
75311;SDS011;63906;55.686;37.532;2023-06-04T11:15:15;1.02;;;0.80;;
75311;SDS011;63906;55.686;37.532;2023-06-04T11:20:17;2.88;;;1.00;;
75311;SDS011;63906;55.686;37.532;2023-06-04T11:25:19;1.40;;;0.90;;
75311;SDS011;63906;55.686;37.532;2023-06-04T11:30:22;2.25;;;1.00;;
75311;SDS011;63906;55.686;37.532;2023-06-04T11:35:23;1.25;;;0.85;;
75311;SDS011;63906;55.686;37.532;2023-06-04T11:40:24;1.13;;;0.80;;
75311;SDS011;63906;55.686;37.532;2023-06-04T11:45:26;4.47;;;1.13;;
75311;SDS011;63906;55.686;37.532;2023-06-04T11:50:29;2.13;;;0.75;;
75311;SDS011;63906;55.686;37.532;2023-06-04T11:55:31;0.68;;;0.50;;
75311;SDS011;63906;55.686;37.532;2023-06-04T12:00:32;1.13;;;0.82;;
75311;SDS011;63906;55.686;37.532;2023-06-04T12:05:33;3.03;;;0.98;;
75311;SDS011;63906;55.686;37.532;2023-06-04T12:10:40;1.85;;;0.80;;
75311;SDS011;63906;55.686;37.532;2023-06-04T12:15:42;1.75;;;1.08;;
75311;SDS011;63906;55.686;37.532;2023-06-04T12:20:43;0.80;;;0.80;;
75311;SDS011;63906;55.686;37.532;2023-06-04T12:25:43;1.30;;;0.70;;
75311;SDS011;63906;55.686;37.532;2023-06-04T12:30:50;1.70;;;1.08;;
75311;SDS011;63906;55.686;37.532;2023-06-04T12:35:51;1.48;;;0.75;;
75311;SDS011;63906;55.686;37.532;2023-06-04T12:45:52;1.63;;;0.70;;
75311;SDS011;63906;55.686;37.532;2023-06-04T12:50:52;1.48;;;0.95;;
75311;SDS011;63906;55.686;37.532;2023-06-04T13:00:53;2.27;;;1.13;;
75311;SDS011;63906;55.686;37.532;2023-06-04T13:05:54;2.95;;;0.85;;
75311;SDS011;63906;55.686;37.532;2023-06-04T13:10:55;2.67;;;0.70;;
75311;SDS011;63906;55.686;37.532;2023-06-04T13:15:55;2.10;;;0.80;;
75311;SDS011;63906;55.686;37.532;2023-06-04T13:20:56;1.42;;;1.00;;
75311;SDS011;63906;55.686;37.532;2023-06-04T13:25:57;1.45;;;0.98;;
75311;SDS011;63906;55.686;37.532;2023-06-04T13:30:57;1.20;;;0.80;;
75311;SDS011;63906;55.686;37.532;2023-06-04T13:35:58;5.00;;;0.95;;
75311;SDS011;63906;55.686;37.532;2023-06-04T13:40:59;3.25;;;1.00;;
75311;SDS011;63906;55.686;37.532;2023-06-04T13:45:59;2.25;;;0.80;;
75311;SDS011;63906;55.686;37.532;2023-06-04T13:51:00;0.93;;;0.73;;
75311;SDS011;63906;55.686;37.532;2023-06-04T13:56:00;2.78;;;0.82;;
75311;SDS011;63906;55.686;37.532;2023-06-04T14:01:01;1.65;;;0.80;;
75311;SDS011;63906;55.686;37.532;2023-06-04T14:06:02;1.42;;;0.93;;
75311;SDS011;63906;55.686;37.532;2023-06-04T14:11:02;4.35;;;1.02;;
75311;SDS011;63906;55.686;37.532;2023-06-04T14:16:03;1.15;;;0.80;;
75311;SDS011;63906;55.686;37.532;2023-06-04T14:21:04;2.75;;;1.10;;
75311;SDS011;63906;55.686;37.532;2023-06-04T14:26:04;1.30;;;0.57;;
75311;SDS011;63906;55.686;37.532;2023-06-04T14:31:05;2.20;;;0.80;;
75311;SDS011;63906;55.686;37.532;2023-06-04T14:36:06;1.80;;;0.63;;
75311;SDS011;63906;55.686;37.532;2023-06-04T14:41:06;2.45;;;0.70;;
75311;SDS011;63906;55.686;37.532;2023-06-04T14:46:07;2.88;;;1.13;;
75311;SDS011;63906;55.686;37.532;2023-06-04T14:51:08;2.25;;;0.82;;
75311;SDS011;63906;55.686;37.532;2023-06-04T14:56:08;2.08;;;1.27;;
75311;SDS011;63906;55.686;37.532;2023-06-04T15:01:09;2.53;;;1.13;;
75311;SDS011;63906;55.686;37.532;2023-06-04T15:06:10;2.83;;;1.10;;
75311;SDS011;63906;55.686;37.532;2023-06-04T15:11:11;2.78;;;1.00;;
75311;SDS011;63906;55.686;37.532;2023-06-04T15:16:11;7.07;;;1.33;;
75311;SDS011;63906;55.686;37.532;2023-06-04T15:21:12;1.55;;;0.90;;
75311;SDS011;63906;55.686;37.532;2023-06-04T15:26:13;2.83;;;1.35;;
75311;SDS011;63906;55.686;37.532;2023-06-04T15:31:14;4.35;;;1.38;;
75311;SDS011;63906;55.686;37.532;2023-06-04T15:36:14;2.15;;;0.90;;
75311;SDS011;63906;55.686;37.532;2023-06-04T15:41:15;4.75;;;1.10;;
75311;SDS011;63906;55.686;37.532;2023-06-04T15:46:16;1.33;;;0.80;;
75311;SDS011;63906;55.686;37.532;2023-06-04T15:51:16;1.70;;;0.90;;
75311;SDS011;63906;55.686;37.532;2023-06-04T15:56:17;2.75;;;1.00;;
75311;SDS011;63906;55.686;37.532;2023-06-04T16:01:18;0.77;;;0.63;;
75311;SDS011;63906;55.686;37.532;2023-06-04T16:06:19;2.47;;;1.00;;
75311;SDS011;63906;55.686;37.532;2023-06-04T16:11:20;1.17;;;0.88;;
75311;SDS011;63906;55.686;37.532;2023-06-04T16:16:23;4.10;;;0.93;;
75311;SDS011;63906;55.686;37.532;2023-06-04T16:21:24;1.80;;;0.90;;
75311;SDS011;63906;55.686;37.532;2023-06-04T16:26:26;3.90;;;0.90;;
75311;SDS011;63906;55.686;37.532;2023-06-04T16:31:26;3.88;;;0.85;;
75311;SDS011;63906;55.686;37.532;2023-06-04T16:36:27;4.22;;;1.58;;
75311;SDS011;63906;55.686;37.532;2023-06-04T16:41:27;1.45;;;0.95;;
75311;SDS011;63906;55.686;37.532;2023-06-04T16:46:28;1.25;;;0.90;;
75311;SDS011;63906;55.686;37.532;2023-06-04T16:51:29;2.35;;;1.10;;
75311;SDS011;63906;55.686;37.532;2023-06-04T16:56:29;1.42;;;0.75;;
75311;SDS011;63906;55.686;37.532;2023-06-04T17:01:30;1.08;;;0.60;;
75311;SDS011;63906;55.686;37.532;2023-06-04T17:06:30;1.90;;;0.80;;
75311;SDS011;63906;55.686;37.532;2023-06-04T17:11:31;3.42;;;1.17;;
75311;SDS011;63906;55.686;37.532;2023-06-04T17:16:33;2.97;;;0.98;;
75311;SDS011;63906;55.686;37.532;2023-06-04T17:21:33;3.35;;;1.00;;
75311;SDS011;63906;55.686;37.532;2023-06-04T17:26:34;4.47;;;1.10;;
75311;SDS011;63906;55.686;37.532;2023-06-04T17:31:35;2.95;;;1.00;;
75311;SDS011;63906;55.686;37.532;2023-06-04T17:36:36;2.28;;;1.20;;
75311;SDS011;63906;55.686;37.532;2023-06-04T17:41:37;4.28;;;0.90;;
75311;SDS011;63906;55.686;37.532;2023-06-04T17:46:38;1.50;;;1.00;;
75311;SDS011;63906;55.686;37.532;2023-06-04T17:51:39;2.30;;;0.80;;
75311;SDS011;63906;55.686;37.532;2023-06-04T17:56:39;3.40;;;1.20;;
75311;SDS011;63906;55.686;37.532;2023-06-04T18:01:40;1.52;;;1.05;;
75311;SDS011;63906;55.686;37.532;2023-06-04T18:06:40;4.72;;;1.30;;
75311;SDS011;63906;55.686;37.532;2023-06-04T18:11:41;3.53;;;1.23;;
75311;SDS011;63906;55.686;37.532;2023-06-04T18:16:41;3.38;;;1.30;;
75311;SDS011;63906;55.686;37.532;2023-06-04T18:21:42;3.05;;;1.50;;
75311;SDS011;63906;55.686;37.532;2023-06-04T18:26:43;1.52;;;1.00;;
75311;SDS011;63906;55.686;37.532;2023-06-04T18:31:43;1.73;;;1.10;;
75311;SDS011;63906;55.686;37.532;2023-06-04T18:36:44;2.30;;;1.30;;
75311;SDS011;63906;55.686;37.532;2023-06-04T18:41:46;2.40;;;1.30;;
75311;SDS011;63906;55.686;37.532;2023-06-04T18:46:47;4.28;;;1.30;;
75311;SDS011;63906;55.686;37.532;2023-06-04T18:51:51;2.88;;;1.50;;
75311;SDS011;63906;55.686;37.532;2023-06-04T18:56:52;2.95;;;1.42;;
75311;SDS011;63906;55.686;37.532;2023-06-04T19:01:53;1.50;;;1.15;;
75311;SDS011;63906;55.686;37.532;2023-06-04T19:06:56;3.13;;;1.48;;
75311;SDS011;63906;55.686;37.532;2023-06-04T19:11:56;1.83;;;1.20;;
75311;SDS011;63906;55.686;37.532;2023-06-04T19:16:59;1.40;;;1.02;;
75311;SDS011;63906;55.686;37.532;2023-06-04T19:22:01;3.80;;;1.38;;
75311;SDS011;63906;55.686;37.532;2023-06-04T19:27:01;5.23;;;1.60;;
75311;SDS011;63906;55.686;37.532;2023-06-04T19:32:02;2.33;;;1.30;;
75311;SDS011;63906;55.686;37.532;2023-06-04T19:37:03;4.05;;;1.80;;
75311;SDS011;63906;55.686;37.532;2023-06-04T19:42:04;4.07;;;1.80;;
75311;SDS011;63906;55.686;37.532;2023-06-04T19:47:05;2.80;;;1.33;;
75311;SDS011;63906;55.686;37.532;2023-06-04T19:52:06;2.50;;;1.42;;
75311;SDS011;63906;55.686;37.532;2023-06-04T19:57:06;5.03;;;1.60;;
75311;SDS011;63906;55.686;37.532;2023-06-04T20:02:09;5.95;;;1.80;;
75311;SDS011;63906;55.686;37.532;2023-06-04T20:07:10;3.22;;;1.55;;
75311;SDS011;63906;55.686;37.532;2023-06-04T20:12:11;3.08;;;1.52;;
75311;SDS011;63906;55.686;37.532;2023-06-04T20:17:11;2.70;;;1.83;;
75311;SDS011;63906;55.686;37.532;2023-06-04T20:22:12;2.63;;;1.55;;
75311;SDS011;63906;55.686;37.532;2023-06-04T20:27:13;2.38;;;1.60;;
75311;SDS011;63906;55.686;37.532;2023-06-04T20:32:16;2.63;;;1.77;;
75311;SDS011;63906;55.686;37.532;2023-06-04T20:37:17;3.90;;;1.77;;
75311;SDS011;63906;55.686;37.532;2023-06-04T20:42:17;2.60;;;1.33;;
75311;SDS011;63906;55.686;37.532;2023-06-04T20:47:18;3.25;;;1.98;;
75311;SDS011;63906;55.686;37.532;2023-06-04T20:52:18;2.67;;;1.63;;
75311;SDS011;63906;55.686;37.532;2023-06-04T20:57:19;4.70;;;1.85;;
75311;SDS011;63906;55.686;37.532;2023-06-04T21:02:20;2.90;;;2.00;;
75311;SDS011;63906;55.686;37.532;2023-06-04T21:07:20;2.45;;;1.48;;
75311;SDS011;63906;55.686;37.532;2023-06-04T21:12:21;2.60;;;1.58;;
75311;SDS011;63906;55.686;37.532;2023-06-04T21:17:21;2.03;;;1.40;;
75311;SDS011;63906;55.686;37.532;2023-06-04T21:22:22;2.35;;;1.63;;
75311;SDS011;63906;55.686;37.532;2023-06-04T21:27:22;2.63;;;1.33;;
75311;SDS011;63906;55.686;37.532;2023-06-04T21:32:23;1.50;;;1.30;;
75311;SDS011;63906;55.686;37.532;2023-06-04T21:37:24;2.53;;;1.58;;
75311;SDS011;63906;55.686;37.532;2023-06-04T21:42:24;5.53;;;1.52;;
75311;SDS011;63906;55.686;37.532;2023-06-04T21:47:25;1.33;;;0.95;;
75311;SDS011;63906;55.686;37.532;2023-06-04T21:52:25;1.92;;;1.30;;
75311;SDS011;63906;55.686;37.532;2023-06-04T21:57:26;2.20;;;1.35;;
75311;SDS011;63906;55.686;37.532;2023-06-04T22:02:26;2.40;;;1.50;;
75311;SDS011;63906;55.686;37.532;2023-06-04T22:07:27;4.47;;;1.60;;
75311;SDS011;63906;55.686;37.532;2023-06-04T22:12:27;3.43;;;1.63;;
75311;SDS011;63906;55.686;37.532;2023-06-04T22:17:28;3.53;;;1.60;;
75311;SDS011;63906;55.686;37.532;2023-06-04T22:22:28;3.90;;;2.00;;
75311;SDS011;63906;55.686;37.532;2023-06-04T22:27:29;3.85;;;1.80;;
75311;SDS011;63906;55.686;37.532;2023-06-04T22:32:30;5.17;;;1.70;;
75311;SDS011;63906;55.686;37.532;2023-06-04T22:37:30;2.97;;;1.70;;
75311;SDS011;63906;55.686;37.532;2023-06-04T22:42:31;4.07;;;1.75;;
75311;SDS011;63906;55.686;37.532;2023-06-04T22:47:31;2.53;;;1.52;;
75311;SDS011;63906;55.686;37.532;2023-06-04T22:52:32;2.97;;;1.65;;
75311;SDS011;63906;55.686;37.532;2023-06-04T22:57:32;2.10;;;1.40;;
75311;SDS011;63906;55.686;37.532;2023-06-04T23:02:33;1.42;;;1.23;;
75311;SDS011;63906;55.686;37.532;2023-06-04T23:07:34;1.83;;;1.40;;
75311;SDS011;63906;55.686;37.532;2023-06-04T23:12:35;1.90;;;1.38;;
75311;SDS011;63906;55.686;37.532;2023-06-04T23:17:35;1.80;;;1.15;;
75311;SDS011;63906;55.686;37.532;2023-06-04T23:22:36;2.38;;;1.50;;
75311;SDS011;63906;55.686;37.532;2023-06-04T23:27:37;2.35;;;1.50;;
75311;SDS011;63906;55.686;37.532;2023-06-04T23:32:37;2.45;;;1.58;;
75311;SDS011;63906;55.686;37.532;2023-06-04T23:37:38;3.05;;;1.70;;
75311;SDS011;63906;55.686;37.532;2023-06-04T23:42:39;10.23;;;2.78;;
75311;SDS011;63906;55.686;37.532;2023-06-04T23:47:39;3.40;;;1.73;;
75311;SDS011;63906;55.686;37.532;2023-06-04T23:52:40;4.43;;;2.00;;
75311;SDS011;63906;55.686;37.532;2023-06-04T23:57:41;3.65;;;1.73;;
